createdAt,value
2017-12-02T00:02:24.476Z,1.10
2017-12-02T00:04:57.027Z,1.10
2017-12-02T00:07:29.570Z,1.00
2017-12-02T00:10:02.123Z,1.00
2017-12-02T00:12:35.604Z,1.00
2017-12-02T00:15:08.142Z,1.00
2017-12-02T00:17:40.652Z,1.10
2017-12-02T00:20:13.233Z,1.10
2017-12-02T00:22:45.740Z,1.10
2017-12-02T00:25:18.281Z,1.10
2017-12-02T00:27:50.789Z,1.10
2017-12-02T00:30:23.332Z,1.20
2017-12-02T00:32:55.845Z,1.20
2017-12-02T00:35:28.381Z,1.20
2017-12-02T00:38:00.894Z,1.20
2017-12-02T00:40:33.426Z,1.20
2017-12-02T00:43:06.701Z,1.20
2017-12-02T00:45:39.229Z,1.20
2017-12-02T00:48:11.742Z,1.20
2017-12-02T00:50:44.325Z,1.20
2017-12-02T00:53:16.837Z,1.20
2017-12-02T00:55:49.360Z,1.20
2017-12-02T00:58:22.632Z,1.30
2017-12-02T01:00:55.166Z,1.30
2017-12-02T01:03:28.465Z,1.30
2017-12-02T01:06:01.009Z,1.30
2017-12-02T01:08:33.516Z,1.30
2017-12-02T01:11:06.895Z,1.30
2017-12-02T01:13:39.466Z,1.30
2017-12-02T01:16:12.029Z,1.30
2017-12-02T01:18:44.536Z,1.20
2017-12-02T01:21:17.133Z,1.20
2017-12-02T01:23:49.629Z,1.20
2017-12-02T01:26:22.169Z,1.20
2017-12-02T01:28:54.681Z,1.20
2017-12-02T01:31:27.211Z,1.30
2017-12-02T01:34:00.486Z,1.30
2017-12-02T01:36:33.033Z,1.30
2017-12-02T01:39:05.534Z,1.30
2017-12-02T01:41:38.060Z,1.30
2017-12-02T01:44:10.671Z,1.40
2017-12-02T01:46:43.219Z,1.40
2017-12-02T01:49:15.733Z,1.40
2017-12-02T01:51:48.332Z,1.40
2017-12-02T01:54:20.837Z,1.40
2017-12-02T01:56:53.374Z,1.50
2017-12-02T01:59:25.880Z,1.50
2017-12-02T02:02:00.181Z,1.50
2017-12-02T02:04:32.688Z,1.50
2017-12-02T02:07:05.263Z,1.50
2017-12-02T02:09:39.261Z,1.50
2017-12-02T02:12:11.804Z,1.50
2017-12-02T02:14:44.359Z,1.50
2017-12-02T02:17:16.985Z,1.50
2017-12-02T02:19:50.276Z,1.50
2017-12-02T02:22:22.820Z,1.50
2017-12-02T02:24:56.104Z,1.50
2017-12-02T02:27:28.636Z,1.50
2017-12-02T02:30:01.969Z,1.50
2017-12-02T02:32:34.521Z,1.50
2017-12-02T02:35:07.062Z,1.50
2017-12-02T02:37:40.391Z,1.50
2017-12-02T02:40:13.666Z,1.50
2017-12-02T02:42:46.184Z,1.50
2017-12-02T02:45:18.685Z,1.50
2017-12-02T02:47:51.233Z,1.50
2017-12-02T02:50:23.750Z,1.50
2017-12-02T02:52:56.306Z,1.50
2017-12-02T02:55:28.815Z,1.50
2017-12-02T02:58:01.345Z,1.50
2017-12-02T03:00:33.850Z,1.50
2017-12-02T03:03:06.439Z,1.50
2017-12-02T03:05:38.998Z,1.50
2017-12-02T03:08:11.521Z,1.50
2017-12-02T03:10:44.046Z,1.50
2017-12-02T03:13:17.360Z,1.50
2017-12-02T03:15:50.644Z,1.40
2017-12-02T03:18:23.187Z,1.50
2017-12-02T03:20:56.525Z,1.40
2017-12-02T03:23:29.059Z,1.40
2017-12-02T03:26:01.569Z,1.40
2017-12-02T03:28:34.913Z,1.30
2017-12-02T03:31:08.187Z,1.30
2017-12-02T03:33:40.743Z,1.30
2017-12-02T03:36:14.025Z,1.20
2017-12-02T03:38:46.570Z,1.20
2017-12-02T03:41:19.897Z,1.10
2017-12-02T03:43:52.441Z,1.10
2017-12-02T03:46:24.939Z,1.10
2017-12-02T03:48:57.460Z,1.10
2017-12-02T03:51:29.965Z,1.10
2017-12-02T03:54:02.496Z,1.10
2017-12-02T03:56:35.775Z,1.10
2017-12-02T03:59:08.316Z,1.10
2017-12-02T04:01:40.816Z,1.10
2017-12-02T04:04:13.393Z,1.10
2017-12-02T04:06:45.897Z,1.10
2017-12-02T04:09:18.422Z,1.10
2017-12-02T04:11:50.920Z,1.10
2017-12-02T04:14:23.461Z,1.00
2017-12-02T04:16:56.733Z,1.00
2017-12-02T04:19:29.282Z,1.00
2017-12-02T04:22:01.792Z,1.00
2017-12-02T04:24:34.325Z,1.00
2017-12-02T04:27:06.850Z,1.00
2017-12-02T04:29:39.392Z,1.00
2017-12-02T04:32:12.657Z,0.90
2017-12-02T04:34:45.185Z,0.90
2017-12-02T04:37:17.688Z,0.90
2017-12-02T04:39:50.220Z,0.90
2017-12-02T04:42:22.724Z,0.90
2017-12-02T04:44:55.249Z,0.90
2017-12-02T04:47:27.756Z,1.00
2017-12-02T04:50:00.300Z,0.90
2017-12-02T04:52:33.576Z,0.90
2017-12-02T04:55:06.881Z,0.90
2017-12-02T04:57:39.403Z,0.90
2017-12-02T05:00:11.936Z,0.90
2017-12-02T05:02:44.439Z,0.90
2017-12-02T05:05:16.977Z,0.90
2017-12-02T05:07:49.480Z,0.80
2017-12-02T05:10:22.014Z,0.90
2017-12-02T05:12:54.517Z,0.80
2017-12-02T05:15:27.058Z,0.80
2017-12-02T05:18:00.374Z,0.80
2017-12-02T05:20:33.680Z,0.80
2017-12-02T05:23:06.189Z,0.80
2017-12-02T05:25:38.799Z,0.80
2017-12-02T05:28:11.313Z,0.80
2017-12-02T05:30:44.635Z,0.80
2017-12-02T05:33:17.925Z,0.80
2017-12-02T05:35:50.454Z,0.80
2017-12-02T05:38:22.969Z,0.80
2017-12-02T05:40:55.497Z,0.80
2017-12-02T05:43:28.071Z,0.70
2017-12-02T05:46:00.613Z,0.70
2017-12-02T05:48:33.126Z,0.70
2017-12-02T05:51:05.669Z,0.70
2017-12-02T05:53:38.178Z,0.70
2017-12-02T05:56:10.712Z,0.70
2017-12-02T05:58:43.233Z,0.70
2017-12-02T06:01:16.325Z,0.70
2017-12-02T06:03:49.548Z,0.60
2017-12-02T06:06:22.585Z,0.60
2017-12-02T06:08:56.977Z,0.60
2017-12-02T06:11:30.117Z,0.60
2017-12-02T06:14:03.232Z,0.60
2017-12-02T06:16:37.756Z,0.60
2017-12-02T06:19:10.996Z,0.60
2017-12-02T06:21:43.980Z,0.70
2017-12-02T06:24:17.997Z,0.60
2017-12-02T06:26:50.975Z,0.50
2017-12-02T06:29:23.856Z,0.50
2017-12-02T06:31:57.076Z,0.50
2017-12-02T06:34:30.785Z,0.40
2017-12-02T06:37:05.091Z,0.40
2017-12-02T06:39:38.188Z,0.30
2017-12-02T06:42:11.330Z,0.30
2017-12-02T06:44:44.236Z,0.30
2017-12-02T06:47:18.112Z,0.30
2017-12-02T06:49:51.309Z,0.30
2017-12-02T06:52:24.275Z,0.30
2017-12-02T06:55:00.503Z,0.30
2017-12-02T06:57:33.526Z,0.30
2017-12-02T07:00:07.297Z,0.30
2017-12-02T07:02:42.069Z,0.30
2017-12-02T07:05:15.724Z,0.30
2017-12-02T07:07:49.001Z,0.30
2017-12-02T07:10:22.971Z,0.30
2017-12-02T07:12:57.784Z,0.40
2017-12-02T07:15:30.875Z,0.40
2017-12-02T07:18:04.110Z,0.40
2017-12-02T07:20:37.955Z,0.40
2017-12-02T07:23:11.112Z,0.40
2017-12-02T07:25:44.797Z,0.50
2017-12-02T07:28:17.984Z,0.50
2017-12-02T07:30:51.686Z,0.50
2017-12-02T07:33:25.769Z,0.50
2017-12-02T07:35:58.817Z,0.50
2017-12-02T07:38:31.859Z,0.50
2017-12-02T07:41:07.597Z,0.50
2017-12-02T07:43:41.384Z,0.50
2017-12-02T07:46:14.434Z,0.40
2017-12-02T07:48:47.800Z,0.40
2017-12-02T07:51:21.912Z,0.40
2017-12-02T07:53:55.836Z,0.50
2017-12-02T07:56:29.636Z,0.50
2017-12-02T07:59:03.740Z,0.60
2017-12-02T08:01:36.787Z,0.60
2017-12-02T08:04:09.908Z,0.60
2017-12-02T08:06:42.967Z,0.60
2017-12-02T08:09:16.066Z,0.60
2017-12-02T08:11:49.340Z,0.70
2017-12-02T08:14:22.358Z,0.70
2017-12-02T08:16:55.912Z,0.80
2017-12-02T08:19:29.191Z,0.80
2017-12-02T08:22:03.489Z,0.80
2017-12-02T08:24:36.591Z,0.80
2017-12-02T08:27:10.669Z,0.90
2017-12-02T08:29:43.767Z,0.90
2017-12-02T08:32:17.728Z,0.90
2017-12-02T08:34:51.667Z,0.90
2017-12-02T08:37:24.716Z,0.90
2017-12-02T08:39:57.931Z,0.90
2017-12-02T08:42:31.674Z,0.90
2017-12-02T08:45:04.796Z,0.90
2017-12-02T08:47:40.950Z,1.00
2017-12-02T08:50:14.225Z,1.00
2017-12-02T08:52:47.195Z,1.00
2017-12-02T08:55:22.867Z,0.90
2017-12-02T08:57:55.965Z,0.90
2017-12-02T09:00:29.164Z,0.90
2017-12-02T09:03:02.021Z,1.00
2017-12-02T09:05:35.142Z,1.00
2017-12-02T09:08:08.876Z,1.00
2017-12-02T09:10:42.012Z,1.00
2017-12-02T09:13:15.076Z,1.00
2017-12-02T09:15:48.210Z,1.00
2017-12-02T09:18:21.696Z,1.10
2017-12-02T09:20:55.545Z,1.10
2017-12-02T09:23:28.435Z,1.10
2017-12-02T09:26:01.569Z,1.20
2017-12-02T09:28:34.499Z,1.20
2017-12-02T09:31:07.639Z,1.20
2017-12-02T09:33:40.559Z,1.20
2017-12-02T09:36:13.653Z,1.20
2017-12-02T09:38:46.770Z,1.20
2017-12-02T09:41:21.102Z,1.20
2017-12-02T09:43:54.270Z,1.30
2017-12-02T09:46:29.093Z,1.30
2017-12-02T09:49:02.199Z,1.30
2017-12-02T09:51:36.177Z,1.30
2017-12-02T09:54:09.009Z,1.30
2017-12-02T09:56:42.679Z,1.30
2017-12-02T09:59:15.810Z,1.40
2017-12-02T10:01:49.026Z,1.40
2017-12-02T10:04:22.779Z,1.30
2017-12-02T10:06:55.953Z,1.30
2017-12-02T10:09:28.987Z,1.40
2017-12-02T10:12:02.111Z,1.40
2017-12-02T10:14:35.059Z,1.40
2017-12-02T10:17:08.137Z,1.40
2017-12-02T10:19:41.234Z,1.40
2017-12-02T10:22:14.969Z,1.50
2017-12-02T10:24:48.851Z,1.50
2017-12-02T10:27:21.897Z,1.40
2017-12-02T10:29:55.009Z,1.40
2017-12-02T10:32:28.046Z,1.40
2017-12-02T10:35:01.065Z,1.40
2017-12-02T10:37:34.098Z,1.40
2017-12-02T10:40:07.367Z,1.30
2017-12-02T10:42:41.237Z,1.40
2017-12-02T10:45:14.285Z,1.40
2017-12-02T10:47:47.315Z,1.30
2017-12-02T10:50:21.118Z,1.30
2017-12-02T10:52:54.239Z,1.30
2017-12-02T10:55:27.335Z,1.20
2017-12-02T10:58:00.485Z,1.30
2017-12-02T11:00:34.096Z,1.20
2017-12-02T11:03:07.127Z,1.20
2017-12-02T11:05:40.136Z,1.20
2017-12-02T11:08:13.920Z,1.20
2017-12-02T11:10:46.934Z,1.10
2017-12-02T11:13:20.029Z,1.20
2017-12-02T11:15:53.036Z,1.20
2017-12-02T11:18:26.098Z,1.10
2017-12-02T11:20:59.008Z,1.20
2017-12-02T11:23:31.959Z,1.20
2017-12-02T11:26:05.906Z,1.10
2017-12-02T11:28:40.185Z,1.10
2017-12-02T11:31:13.864Z,1.10
2017-12-02T11:33:46.981Z,1.10
2017-12-02T11:36:19.954Z,1.10
2017-12-02T11:38:52.988Z,1.00
2017-12-02T11:41:26.057Z,1.10
2017-12-02T11:43:59.955Z,1.00
2017-12-02T11:46:33.183Z,0.90
2017-12-02T11:49:06.143Z,0.80
2017-12-02T11:51:39.336Z,0.80
2017-12-02T11:54:12.314Z,0.80
2017-12-02T11:56:46.047Z,0.80
2017-12-02T11:59:19.078Z,0.90
2017-12-02T12:01:51.967Z,0.90
2017-12-02T12:04:24.985Z,0.90
2017-12-02T12:06:58.085Z,0.90
2017-12-02T12:09:31.916Z,0.90
2017-12-02T12:12:05.481Z,0.80
2017-12-02T12:14:38.309Z,0.90
2017-12-02T12:17:11.210Z,0.80
2017-12-02T12:19:44.146Z,0.80
2017-12-02T12:22:17.983Z,0.80
2017-12-02T12:24:50.703Z,0.80
2017-12-02T12:27:24.159Z,0.80
2017-12-02T12:29:57.244Z,0.80
2017-12-02T12:32:30.214Z,0.80
2017-12-02T12:35:03.204Z,0.80
2017-12-02T12:37:36.131Z,0.80
2017-12-02T12:40:09.218Z,0.80
2017-12-02T12:42:42.332Z,0.70
2017-12-02T12:45:15.338Z,0.70
2017-12-02T12:47:48.707Z,0.70
2017-12-02T12:50:21.640Z,0.60
2017-12-02T12:52:54.687Z,0.60
2017-12-02T12:55:28.464Z,0.60
2017-12-02T12:58:01.499Z,0.60
2017-12-02T13:00:35.449Z,0.50
2017-12-02T13:03:08.235Z,0.50
2017-12-02T13:05:41.858Z,0.60
2017-12-02T13:08:14.916Z,0.60
2017-12-02T13:10:47.942Z,0.60
2017-12-02T13:13:21.046Z,0.60
2017-12-02T13:15:54.132Z,0.70
2017-12-02T13:18:27.114Z,0.70
2017-12-02T13:21:00.378Z,0.70
2017-12-02T13:23:33.310Z,0.70
2017-12-02T13:26:06.260Z,0.70
2017-12-02T13:28:40.254Z,0.70
2017-12-02T13:31:13.316Z,0.70
2017-12-02T13:33:46.390Z,0.70
2017-12-02T13:36:19.327Z,0.60
2017-12-02T13:38:53.129Z,0.60
2017-12-02T13:41:26.919Z,0.60
2017-12-02T13:43:59.847Z,0.50
2017-12-02T13:46:32.869Z,0.40
2017-12-02T13:49:05.724Z,0.40
2017-12-02T13:51:39.693Z,0.40
2017-12-02T13:54:12.666Z,0.40
2017-12-02T13:56:45.485Z,0.40
2017-12-02T13:59:19.070Z,0.40
2017-12-02T14:01:52.260Z,0.40
2017-12-02T14:04:25.117Z,0.50
2017-12-02T14:06:58.847Z,0.40
2017-12-02T14:09:31.837Z,0.40
2017-12-02T14:12:04.744Z,0.50
2017-12-02T14:14:37.872Z,0.40
2017-12-02T14:17:11.519Z,0.30
2017-12-02T14:19:44.378Z,0.30
2017-12-02T14:22:17.577Z,0.30
2017-12-02T14:24:51.282Z,0.30
2017-12-02T14:27:25.200Z,0.30
2017-12-02T14:29:58.063Z,0.30
2017-12-02T14:32:31.132Z,0.30
2017-12-02T14:35:04.106Z,0.30
2017-12-02T14:37:37.184Z,0.30
2017-12-02T14:40:10.561Z,0.30
2017-12-02T14:42:43.587Z,0.30
2017-12-02T14:45:16.464Z,0.40
2017-12-02T14:47:49.499Z,0.40
2017-12-02T14:50:23.219Z,0.30
2017-12-02T14:52:56.222Z,0.30
2017-12-02T14:55:29.016Z,0.30
2017-12-02T14:58:02.058Z,0.30
2017-12-02T15:00:34.920Z,0.30
2017-12-02T15:03:07.862Z,0.30
2017-12-02T15:05:40.857Z,0.30
2017-12-02T15:08:14.581Z,0.30
2017-12-02T15:10:47.573Z,0.30
2017-12-02T15:13:20.461Z,0.30
2017-12-02T15:15:53.450Z,0.30
2017-12-02T15:18:27.415Z,0.20
2017-12-02T15:21:00.977Z,0.20
2017-12-02T15:23:34.100Z,0.30
2017-12-02T15:26:07.077Z,0.20
2017-12-02T15:28:39.983Z,0.20
2017-12-02T15:31:12.941Z,0.20
2017-12-02T15:33:47.411Z,0.20
2017-12-02T15:36:20.489Z,0.30
2017-12-02T15:38:54.398Z,0.30
2017-12-02T15:41:27.950Z,0.20
2017-12-02T15:44:01.955Z,0.20
2017-12-02T15:46:35.673Z,0.20
2017-12-02T15:49:09.804Z,0.20
2017-12-02T15:51:42.704Z,0.20
2017-12-02T15:54:18.786Z,0.20
2017-12-02T15:56:52.156Z,0.20
2017-12-02T15:59:26.887Z,0.10
2017-12-02T16:01:59.837Z,0.10
2017-12-02T16:04:32.954Z,0.10
2017-12-02T16:07:05.913Z,0.10
2017-12-02T16:09:40.262Z,0.10
2017-12-02T16:12:13.170Z,0.10
2017-12-02T16:14:46.096Z,0.10
2017-12-02T16:17:19.166Z,0.10
2017-12-02T16:19:52.077Z,0.10
2017-12-02T16:22:25.091Z,0.10
2017-12-02T16:24:58.025Z,0.10
2017-12-02T16:27:31.002Z,0.10
2017-12-02T16:30:04.205Z,0.10
2017-12-02T16:32:37.122Z,0.10
2017-12-02T16:35:10.772Z,0.10
2017-12-02T16:37:44.527Z,0.10
2017-12-02T16:40:17.567Z,0.10
2017-12-02T16:42:50.670Z,0.10
2017-12-02T16:45:23.798Z,0.10
2017-12-02T16:47:56.656Z,0.10
2017-12-02T16:50:30.535Z,0.10
2017-12-02T16:53:04.377Z,0.10
2017-12-02T16:55:38.422Z,0.10
2017-12-02T16:58:11.369Z,0.10
2017-12-02T17:00:44.528Z,0.10
2017-12-02T17:03:17.389Z,0.10
2017-12-02T17:05:50.605Z,0.10
2017-12-02T17:08:24.441Z,0.10
2017-12-02T17:10:59.004Z,0.10
2017-12-02T17:13:33.024Z,0.10
2017-12-02T17:16:06.081Z,0.10
2017-12-02T17:18:40.420Z,0.20
2017-12-02T17:21:13.640Z,0.20
2017-12-02T17:23:46.683Z,0.20
2017-12-02T17:26:20.672Z,0.20
2017-12-02T17:28:54.329Z,0.20
2017-12-02T17:31:27.441Z,0.20
2017-12-02T17:34:01.223Z,0.30
2017-12-02T17:36:34.075Z,0.30
2017-12-02T17:39:07.008Z,0.30
2017-12-02T17:41:40.161Z,0.20
2017-12-02T17:44:13.153Z,0.20
2017-12-02T17:46:46.317Z,0.30
2017-12-02T17:49:20.860Z,0.30
2017-12-02T17:51:54.011Z,0.30
2017-12-02T17:54:26.869Z,0.30
2017-12-02T17:57:00.597Z,0.30
2017-12-02T17:59:35.202Z,0.30
2017-12-02T18:02:08.127Z,0.30
2017-12-02T18:04:41.948Z,0.30
2017-12-02T18:07:15.826Z,0.30
2017-12-02T18:09:49.483Z,0.30
2017-12-02T18:12:23.340Z,0.30
2017-12-02T18:14:56.346Z,0.30
2017-12-02T18:17:29.756Z,0.30
2017-12-02T18:20:02.636Z,0.30
2017-12-02T18:22:35.548Z,0.30
2017-12-02T18:25:08.462Z,0.30
2017-12-02T18:27:43.137Z,0.30
2017-12-02T18:30:16.699Z,0.30
2017-12-02T18:32:49.915Z,0.30
2017-12-02T18:35:22.973Z,0.30
2017-12-02T18:37:55.966Z,0.30
2017-12-02T18:40:28.947Z,0.40
2017-12-02T18:43:01.923Z,0.40
2017-12-02T18:45:34.729Z,0.40
2017-12-02T18:48:07.586Z,0.40
2017-12-02T18:50:41.371Z,0.40
2017-12-02T18:53:14.600Z,0.30
2017-12-02T18:55:48.580Z,0.40
2017-12-02T18:58:23.430Z,0.30
2017-12-02T19:00:56.408Z,0.30
2017-12-02T19:03:29.420Z,0.30
2017-12-02T19:06:03.231Z,0.30
2017-12-02T19:08:36.221Z,0.30
2017-12-02T19:11:09.968Z,0.30
2017-12-02T19:13:42.951Z,0.30
2017-12-02T19:16:16.055Z,0.30
2017-12-02T19:18:49.039Z,0.30
2017-12-02T19:21:22.040Z,0.30
2017-12-02T19:23:54.868Z,0.30
2017-12-02T19:26:27.877Z,0.30
2017-12-02T19:29:01.724Z,0.30
2017-12-02T19:31:34.685Z,0.30
2017-12-02T19:34:07.834Z,0.30
2017-12-02T19:36:41.621Z,0.20
2017-12-02T19:39:14.695Z,0.20
2017-12-02T19:41:47.731Z,0.20
2017-12-02T19:44:20.807Z,0.20
2017-12-02T19:46:53.909Z,0.20
2017-12-02T19:49:26.923Z,0.20
2017-12-02T19:52:00.114Z,0.20
2017-12-02T19:54:33.282Z,0.10
2017-12-02T19:57:06.248Z,0.10
2017-12-02T19:59:40.219Z,0.10
2017-12-02T20:02:13.390Z,0.10
2017-12-02T20:04:46.679Z,0.10
2017-12-02T20:07:19.689Z,0.20
2017-12-02T20:09:52.763Z,0.20
2017-12-02T20:12:25.626Z,0.20
2017-12-02T20:14:58.690Z,0.10
2017-12-02T20:17:31.657Z,0.10
2017-12-02T20:20:05.106Z,0.20
2017-12-02T20:22:38.259Z,0.20
2017-12-02T20:25:11.438Z,0.30
2017-12-02T20:27:44.456Z,0.30
2017-12-02T20:30:18.399Z,0.30
2017-12-02T20:32:52.235Z,0.30
2017-12-02T20:35:26.002Z,0.30
2017-12-02T20:37:59.013Z,0.30
2017-12-02T20:40:32.102Z,0.30
2017-12-02T20:43:05.132Z,0.20
2017-12-02T20:45:38.211Z,0.20
2017-12-02T20:48:11.931Z,0.20
2017-12-02T20:50:45.607Z,0.20
2017-12-02T20:53:19.410Z,0.20
2017-12-02T20:55:52.510Z,0.20
2017-12-02T20:58:26.469Z,0.20
2017-12-02T21:00:59.848Z,0.10
2017-12-02T21:03:32.776Z,0.10
2017-12-02T21:06:06.605Z,0.20
2017-12-02T21:08:39.393Z,0.10
2017-12-02T21:11:12.475Z,0.10
2017-12-02T21:13:45.345Z,0.10
2017-12-02T21:16:18.264Z,0.10
2017-12-02T21:18:52.000Z,0.10
2017-12-02T21:21:25.536Z,0.10
2017-12-02T21:23:58.554Z,0.10
2017-12-02T21:26:32.299Z,0.10
2017-12-02T21:29:05.134Z,0.10
2017-12-02T21:31:38.298Z,0.10
2017-12-02T21:34:11.447Z,0.10
2017-12-02T21:36:44.459Z,0.10
2017-12-02T21:39:17.451Z,0.00
2017-12-02T21:41:50.366Z,0.00
2017-12-02T21:44:24.807Z,0.00
2017-12-02T21:46:58.752Z,0.00
2017-12-02T21:49:33.041Z,0.00
2017-12-02T21:52:07.668Z,0.00
2017-12-02T21:54:40.713Z,0.00
2017-12-02T21:57:13.689Z,0.00
2017-12-02T21:59:47.247Z,0.00
2017-12-02T22:02:20.407Z,0.00
2017-12-02T22:04:53.369Z,-0.10
2017-12-02T22:07:26.479Z,-0.10
2017-12-02T22:09:59.442Z,-0.10
2017-12-02T22:12:32.647Z,0.00
2017-12-02T22:15:05.433Z,0.00
2017-12-02T22:17:38.655Z,-0.10
2017-12-02T22:20:12.261Z,-0.10
2017-12-02T22:22:45.120Z,-0.10
2017-12-02T22:25:18.043Z,-0.10
2017-12-02T22:27:51.191Z,-0.10
2017-12-02T22:30:24.132Z,-0.10
2017-12-02T22:32:57.245Z,-0.10
2017-12-02T22:35:30.203Z,-0.20
2017-12-02T22:38:03.388Z,-0.20
2017-12-02T22:40:36.390Z,-0.20
2017-12-02T22:43:09.484Z,-0.20
2017-12-02T22:45:43.960Z,-0.20
2017-12-02T22:48:17.122Z,-0.20
2017-12-02T22:50:50.173Z,-0.20
2017-12-02T22:53:25.046Z,-0.20
2017-12-02T22:55:59.038Z,-0.20
2017-12-02T22:58:32.144Z,-0.20
2017-12-02T23:01:06.159Z,-0.20
2017-12-02T23:03:39.805Z,-0.30
2017-12-02T23:06:13.416Z,-0.30
2017-12-02T23:08:47.875Z,-0.30
2017-12-02T23:11:20.857Z,-0.30
2017-12-02T23:13:54.394Z,-0.30
2017-12-02T23:16:27.562Z,-0.30
2017-12-02T23:19:00.712Z,-0.30
2017-12-02T23:21:34.415Z,-0.30
2017-12-02T23:24:08.370Z,-0.40
2017-12-02T23:26:41.347Z,-0.40
2017-12-02T23:29:14.323Z,-0.30
2017-12-02T23:31:47.403Z,-0.30
2017-12-02T23:34:20.512Z,-0.30
2017-12-02T23:36:54.175Z,-0.30
2017-12-02T23:39:27.189Z,-0.30
2017-12-02T23:42:00.939Z,-0.30
2017-12-02T23:44:33.957Z,-0.40
2017-12-02T23:47:07.087Z,-0.30
2017-12-02T23:49:40.023Z,-0.30
2017-12-02T23:52:15.019Z,-0.30
2017-12-02T23:54:55.621Z,-0.30
2017-12-02T23:57:28.662Z,-0.30
